sensor_id;sensor_type;location;lat;lon;timestamp;pressure;altitude;pressure_sealevel;temperature;humidity
67457;BME280;54319;52.038;4.640;2022-11-21T00:00:53;100678.59;;;2.09;100.00
67457;BME280;54319;52.038;4.640;2022-11-21T00:03:21;100687.16;;;2.08;100.00
67457;BME280;54319;52.038;4.640;2022-11-21T00:05:49;100697.53;;;2.10;100.00
67457;BME280;54319;52.038;4.640;2022-11-21T00:08:18;100698.44;;;2.12;100.00
67457;BME280;54319;52.038;4.640;2022-11-21T00:10:49;100695.81;;;2.10;100.00
67457;BME280;54319;52.038;4.640;2022-11-21T00:13:17;100701.91;;;2.12;100.00
67457;BME280;54319;52.038;4.640;2022-11-21T00:15:46;100707.03;;;2.11;100.00
67457;BME280;54319;52.038;4.640;2022-11-21T00:18:13;100694.09;;;2.09;100.00
67457;BME280;54319;52.038;4.640;2022-11-21T00:20:43;100695.81;;;2.10;100.00
67457;BME280;54319;52.038;4.640;2022-11-21T00:23:10;100689.78;;;2.10;100.00
67457;BME280;54319;52.038;4.640;2022-11-21T00:25:38;100688.91;;;2.09;100.00
67457;BME280;54319;52.038;4.640;2022-11-21T00:28:05;100679.50;;;2.11;100.00
67457;BME280;54319;52.038;4.640;2022-11-21T00:30:32;100687.25;;;2.11;100.00
67457;BME280;54319;52.038;4.640;2022-11-21T00:32:59;100679.44;;;2.10;100.00
67457;BME280;54319;52.038;4.640;2022-11-21T00:35:27;100693.28;;;2.12;100.00
67457;BME280;54319;52.038;4.640;2022-11-21T00:37:55;100694.09;;;2.11;100.00
67457;BME280;54319;52.038;4.640;2022-11-21T00:40:22;100693.22;;;2.10;100.00
67457;BME280;54319;52.038;4.640;2022-11-21T00:42:49;100694.06;;;2.08;100.00
67457;BME280;54319;52.038;4.640;2022-11-21T00:45:18;100695.72;;;2.05;100.00
67457;BME280;54319;52.038;4.640;2022-11-21T00:47:45;100694.88;;;2.05;100.00
67457;BME280;54319;52.038;4.640;2022-11-21T00:50:12;100696.59;;;2.06;100.00
67457;BME280;54319;52.038;4.640;2022-11-21T00:52:39;100691.38;;;2.03;100.00
67457;BME280;54319;52.038;4.640;2022-11-21T00:55:10;100686.19;;;2.03;100.00
67457;BME280;54319;52.038;4.640;2022-11-21T00:57:37;100693.06;;;2.01;100.00
67457;BME280;54319;52.038;4.640;2022-11-21T01:00:05;100688.75;;;2.01;100.00
67457;BME280;54319;52.038;4.640;2022-11-21T01:02:33;100685.34;;;2.04;100.00
67457;BME280;54319;52.038;4.640;2022-11-21T01:04:59;100669.81;;;2.02;100.00
67457;BME280;54319;52.038;4.640;2022-11-21T01:07:28;100675.00;;;2.02;100.00
67457;BME280;54319;52.038;4.640;2022-11-21T01:09:54;100665.53;;;2.03;100.00
67457;BME280;54319;52.038;4.640;2022-11-21T01:12:24;100658.59;;;2.00;100.00
67457;BME280;54319;52.038;4.640;2022-11-21T01:14:52;100666.25;;;1.97;100.00
67457;BME280;54319;52.038;4.640;2022-11-21T01:17:22;100661.91;;;1.95;100.00
67457;BME280;54319;52.038;4.640;2022-11-21T01:19:51;100647.22;;;1.92;100.00
67457;BME280;54319;52.038;4.640;2022-11-21T01:22:18;100645.41;;;1.88;100.00
67457;BME280;54319;52.038;4.640;2022-11-21T01:24:45;100660.00;;;1.86;100.00
67457;BME280;54319;52.038;4.640;2022-11-21T01:27:12;100663.44;;;1.86;100.00
67457;BME280;54319;52.038;4.640;2022-11-21T01:29:40;100663.47;;;1.88;100.00
67457;BME280;54319;52.038;4.640;2022-11-21T01:32:08;100675.53;;;1.88;100.00
67457;BME280;54319;52.038;4.640;2022-11-21T01:34:35;100682.44;;;1.89;100.00
67457;BME280;54319;52.038;4.640;2022-11-21T01:37:04;100685.88;;;1.88;100.00
67457;BME280;54319;52.038;4.640;2022-11-21T01:39:31;100690.19;;;1.89;100.00
67457;BME280;54319;52.038;4.640;2022-11-21T01:41:58;100665.25;;;1.89;100.00
67457;BME280;54319;52.038;4.640;2022-11-21T01:44:26;100642.72;;;1.83;100.00
67457;BME280;54319;52.038;4.640;2022-11-21T01:47:13;100663.38;;;1.83;100.00
67457;BME280;54319;52.038;4.640;2022-11-21T01:49:40;100661.66;;;1.84;100.00
67457;BME280;54319;52.038;4.640;2022-11-21T01:52:13;100667.72;;;1.84;100.00
67457;BME280;54319;52.038;4.640;2022-11-21T01:54:44;100666.00;;;1.85;100.00
67457;BME280;54319;52.038;4.640;2022-11-21T01:57:16;100659.13;;;1.85;100.00
67457;BME280;54319;52.038;4.640;2022-11-21T01:59:49;100653.97;;;1.85;100.00
67457;BME280;54319;52.038;4.640;2022-11-21T02:02:26;100654.88;;;1.88;100.00
67457;BME280;54319;52.038;4.640;2022-11-21T02:04:54;100654.00;;;1.89;100.00
67457;BME280;54319;52.038;4.640;2022-11-21T02:07:23;100645.44;;;1.90;100.00
67457;BME280;54319;52.038;4.640;2022-11-21T02:09:53;100651.44;;;1.89;100.00
67457;BME280;54319;52.038;4.640;2022-11-21T02:12:25;100643.69;;;1.89;100.00
67457;BME280;54319;52.038;4.640;2022-11-21T02:14:54;100637.69;;;1.90;100.00
67457;BME280;54319;52.038;4.640;2022-11-21T02:17:24;100642.84;;;1.90;100.00
67457;BME280;54319;52.038;4.640;2022-11-21T02:19:53;100642.84;;;1.90;100.00
67457;BME280;54319;52.038;4.640;2022-11-21T02:22:28;100653.19;;;1.90;100.00
67457;BME280;54319;52.038;4.640;2022-11-21T02:25:04;100653.22;;;1.91;100.00
67457;BME280;54319;52.038;4.640;2022-11-21T02:27:32;100649.84;;;1.94;100.00
67457;BME280;54319;52.038;4.640;2022-11-21T02:30:03;100668.81;;;1.96;100.00
67457;BME280;54319;52.038;4.640;2022-11-21T02:32:33;100676.63;;;1.99;100.00
67457;BME280;54319;52.038;4.640;2022-11-21T02:35:00;100679.22;;;1.99;100.00
67457;BME280;54319;52.038;4.640;2022-11-21T02:37:28;100681.84;;;2.02;100.00
67457;BME280;54319;52.038;4.640;2022-11-21T02:39:56;100675.00;;;2.02;100.00
67457;BME280;54319;52.038;4.640;2022-11-21T02:42:33;100663.03;;;2.08;100.00
67457;BME280;54319;52.038;4.640;2022-11-21T02:45:04;100667.34;;;2.07;100.00
67457;BME280;54319;52.038;4.640;2022-11-21T02:47:36;100650.06;;;2.06;100.00
67457;BME280;54319;52.038;4.640;2022-11-21T02:50:09;100646.66;;;2.07;100.00
67457;BME280;54319;52.038;4.640;2022-11-21T02:52:38;100643.22;;;2.08;100.00
67457;BME280;54319;52.038;4.640;2022-11-21T02:55:06;100648.38;;;2.08;100.00
67457;BME280;54319;52.038;4.640;2022-11-21T02:57:35;100646.63;;;2.05;100.00
67457;BME280;54319;52.038;4.640;2022-11-21T03:00:03;100650.94;;;2.05;100.00
67457;BME280;54319;52.038;4.640;2022-11-21T03:02:31;100652.66;;;2.06;100.00
67457;BME280;54319;52.038;4.640;2022-11-21T03:04:57;100637.31;;;2.14;100.00
67457;BME280;54319;52.038;4.640;2022-11-21T03:07:25;100635.53;;;2.11;100.00
67457;BME280;54319;52.038;4.640;2022-11-21T03:09:52;100632.91;;;2.10;100.00
67457;BME280;54319;52.038;4.640;2022-11-21T03:12:19;100634.56;;;2.06;100.00
67457;BME280;54319;52.038;4.640;2022-11-21T03:14:47;100634.47;;;2.01;100.00
67457;BME280;54319;52.038;4.640;2022-11-21T03:17:14;100633.56;;;1.99;100.00
67457;BME280;54319;52.038;4.640;2022-11-21T03:19:41;100635.28;;;1.99;100.00
67457;BME280;54319;52.038;4.640;2022-11-21T03:22:08;100634.47;;;2.00;100.00
67457;BME280;54319;52.038;4.640;2022-11-21T03:24:35;100634.47;;;2.00;100.00
67457;BME280;54319;52.038;4.640;2022-11-21T03:27:03;100637.03;;;2.00;100.00
67457;BME280;54319;52.038;4.640;2022-11-21T03:29:30;100632.00;;;2.08;100.00
67457;BME280;54319;52.038;4.640;2022-11-21T03:31:58;100621.63;;;2.04;100.00
67457;BME280;54319;52.038;4.640;2022-11-21T03:34:25;100625.91;;;2.04;100.00
67457;BME280;54319;52.038;4.640;2022-11-21T03:36:52;100619.00;;;2.03;100.00
67457;BME280;54319;52.038;4.640;2022-11-21T03:39:18;100627.63;;;2.03;100.00
67457;BME280;54319;52.038;4.640;2022-11-21T03:41:48;100629.38;;;2.06;100.00
67457;BME280;54319;52.038;4.640;2022-11-21T03:44:14;100630.28;;;2.08;100.00
67457;BME280;54319;52.038;4.640;2022-11-21T03:46:44;100621.63;;;2.04;100.00
67457;BME280;54319;52.038;4.640;2022-11-21T03:49:13;100616.38;;;2.01;100.00
67457;BME280;54319;52.038;4.640;2022-11-21T03:51:44;100612.97;;;2.04;100.00
67457;BME280;54319;52.038;4.640;2022-11-21T03:54:10;100617.22;;;2.00;100.00
67457;BME280;54319;52.038;4.640;2022-11-21T03:56:37;100626.53;;;1.92;100.00
67457;BME280;54319;52.038;4.640;2022-11-21T03:59:05;100628.06;;;1.84;100.00
67457;BME280;54319;52.038;4.640;2022-11-21T04:01:32;100616.91;;;1.85;100.00
67457;BME280;54319;52.038;4.640;2022-11-21T04:03:59;100604.91;;;1.89;100.00
67457;BME280;54319;52.038;4.640;2022-11-21T04:06:28;100598.97;;;1.91;100.00
67457;BME280;54319;52.038;4.640;2022-11-21T04:08:55;100599.75;;;1.89;100.00
67457;BME280;54319;52.038;4.640;2022-11-21T04:11:22;100603.13;;;1.84;100.00
67457;BME280;54319;52.038;4.640;2022-11-21T04:13:49;100602.22;;;1.82;100.00
67457;BME280;54319;52.038;4.640;2022-11-21T04:16:16;100597.06;;;1.82;100.00
67457;BME280;54319;52.038;4.640;2022-11-21T04:18:43;100600.44;;;1.80;100.00
67457;BME280;54319;52.038;4.640;2022-11-21T04:21:12;100604.81;;;1.84;100.00
67457;BME280;54319;52.038;4.640;2022-11-21T04:23:40;100603.09;;;1.83;100.00
67457;BME280;54319;52.038;4.640;2022-11-21T04:26:08;100597.75;;;1.75;100.00
67457;BME280;54319;52.038;4.640;2022-11-21T04:28:35;100596.06;;;1.77;100.00
67457;BME280;54319;52.038;4.640;2022-11-21T04:31:03;100590.09;;;1.78;100.00
67457;BME280;54319;52.038;4.640;2022-11-21T04:33:30;100591.84;;;1.81;100.00
67457;BME280;54319;52.038;4.640;2022-11-21T04:35:57;100584.88;;;1.77;100.00
67457;BME280;54319;52.038;4.640;2022-11-21T04:38:24;100589.19;;;1.76;100.00
67457;BME280;54319;52.038;4.640;2022-11-21T04:40:52;100588.31;;;1.77;100.00
67457;BME280;54319;52.038;4.640;2022-11-21T04:43:19;100582.34;;;1.78;100.00
67457;BME280;54319;52.038;4.640;2022-11-21T04:45:46;100584.94;;;1.80;100.00
67457;BME280;54319;52.038;4.640;2022-11-21T04:48:14;100576.31;;;1.79;100.00
67457;BME280;54319;52.038;4.640;2022-11-21T04:50:41;100574.50;;;1.74;100.00
67457;BME280;54319;52.038;4.640;2022-11-21T04:53:07;100570.19;;;1.74;100.00
67457;BME280;54319;52.038;4.640;2022-11-21T04:55:34;100565.06;;;1.76;100.00
67457;BME280;54319;52.038;4.640;2022-11-21T04:58:02;100565.94;;;1.78;100.00
67457;BME280;54319;52.038;4.640;2022-11-21T05:00:29;100558.91;;;1.71;100.00
67457;BME280;54319;52.038;4.640;2022-11-21T05:03:00;100550.22;;;1.65;100.00
67457;BME280;54319;52.038;4.640;2022-11-21T05:05:29;100553.59;;;1.63;100.00
67457;BME280;54319;52.038;4.640;2022-11-21T05:07:55;100553.50;;;1.58;100.00
67457;BME280;54319;52.038;4.640;2022-11-21T05:10:22;100556.91;;;1.57;100.00
67457;BME280;54319;52.038;4.640;2022-11-21T05:12:55;100555.06;;;1.50;100.00
67457;BME280;54319;52.038;4.640;2022-11-21T05:15:42;100544.03;;;1.59;100.00
67457;BME280;54319;52.038;4.640;2022-11-21T05:18:09;100553.41;;;1.54;100.00
67457;BME280;54319;52.038;4.640;2022-11-21T05:20:36;100536.94;;;1.49;100.00
67457;BME280;54319;52.038;4.640;2022-11-21T05:23:03;100533.53;;;1.50;100.00
67457;BME280;54319;52.038;4.640;2022-11-21T05:25:30;100523.25;;;1.53;100.00
67457;BME280;54319;52.038;4.640;2022-11-21T05:27:57;100535.34;;;1.54;100.00
67457;BME280;54319;52.038;4.640;2022-11-21T05:30:24;100526.69;;;1.52;100.00
67457;BME280;54319;52.038;4.640;2022-11-21T05:32:52;100518.03;;;1.51;100.00
67457;BME280;54319;52.038;4.640;2022-11-21T05:35:19;100525.00;;;1.54;100.00
67457;BME280;54319;52.038;4.640;2022-11-21T05:37:46;100511.19;;;1.52;100.00
67457;BME280;54319;52.038;4.640;2022-11-21T05:40:12;100509.50;;;1.54;100.00
67457;BME280;54319;52.038;4.640;2022-11-21T05:42:41;100513.88;;;1.58;100.00
67457;BME280;54319;52.038;4.640;2022-11-21T05:45:25;100520.72;;;1.54;100.00
67457;BME280;54319;52.038;4.640;2022-11-21T05:47:54;100522.44;;;1.55;100.00
67457;BME280;54319;52.038;4.640;2022-11-21T05:50:21;100520.63;;;1.50;100.00
67457;BME280;54319;52.038;4.640;2022-11-21T05:52:48;100522.25;;;1.46;100.00
67457;BME280;54319;52.038;4.640;2022-11-21T05:55:15;100523.13;;;1.47;100.00
67457;BME280;54319;52.038;4.640;2022-11-21T05:57:44;100516.31;;;1.50;100.00
67457;BME280;54319;52.038;4.640;2022-11-21T06:00:13;100510.38;;;1.54;100.00
67457;BME280;54319;52.038;4.640;2022-11-21T06:02:40;100504.41;;;1.57;100.00
67457;BME280;54319;52.038;4.640;2022-11-21T06:05:25;100492.31;;;1.56;100.00
67457;BME280;54319;52.038;4.640;2022-11-21T06:07:55;100490.72;;;1.62;100.00
67457;BME280;54319;52.038;4.640;2022-11-21T06:10:22;100491.53;;;1.58;100.00
67457;BME280;54319;52.038;4.640;2022-11-21T06:12:49;100480.28;;;1.56;100.00
67457;BME280;54319;52.038;4.640;2022-11-21T06:15:15;100481.19;;;1.58;100.00
67457;BME280;54319;52.038;4.640;2022-11-21T06:17:43;100481.13;;;1.55;100.00
67457;BME280;54319;52.038;4.640;2022-11-21T06:20:10;100475.16;;;1.59;100.00
67457;BME280;54319;52.038;4.640;2022-11-21T06:22:39;100477.81;;;1.62;100.00
67457;BME280;54319;52.038;4.640;2022-11-21T06:25:06;100466.56;;;1.59;100.00
67457;BME280;54319;52.038;4.640;2022-11-21T06:27:33;100478.44;;;1.51;100.00
67457;BME280;54319;52.038;4.640;2022-11-21T06:29:59;100464.66;;;1.50;100.00
67457;BME280;54319;52.038;4.640;2022-11-21T06:32:28;100468.06;;;1.48;100.00
67457;BME280;54319;52.038;4.640;2022-11-21T06:34:55;100459.47;;;1.49;100.00
67457;BME280;54319;52.038;4.640;2022-11-21T06:37:22;100461.22;;;1.50;100.00
67457;BME280;54319;52.038;4.640;2022-11-21T06:39:50;100464.63;;;1.49;100.00
67457;BME280;54319;52.038;4.640;2022-11-21T06:42:17;100471.56;;;1.50;100.00
67457;BME280;54319;52.038;4.640;2022-11-21T06:44:44;100469.88;;;1.52;100.00
67457;BME280;54319;52.038;4.640;2022-11-21T06:47:10;100472.47;;;1.52;100.00
67457;BME280;54319;52.038;4.640;2022-11-21T06:49:37;100468.19;;;1.54;100.00
67457;BME280;54319;52.038;4.640;2022-11-21T06:52:04;100461.22;;;1.50;100.00
67457;BME280;54319;52.038;4.640;2022-11-21T06:54:30;100452.69;;;1.54;100.00
67457;BME280;54319;52.038;4.640;2022-11-21T06:56:59;100444.91;;;1.52;100.00
67457;BME280;54319;52.038;4.640;2022-11-21T06:59:26;100441.50;;;1.55;100.00
67457;BME280;54319;52.038;4.640;2022-11-21T07:01:53;100430.44;;;1.62;100.00
67457;BME280;54319;52.038;4.640;2022-11-21T07:04:20;100424.38;;;1.58;100.00
67457;BME280;54319;52.038;4.640;2022-11-21T07:06:47;100423.47;;;1.58;100.00
67457;BME280;54319;52.038;4.640;2022-11-21T07:09:13;100417.53;;;1.62;100.00
67457;BME280;54319;52.038;4.640;2022-11-21T07:11:41;100420.06;;;1.59;100.00
67457;BME280;54319;52.038;4.640;2022-11-21T07:14:09;100420.97;;;1.62;100.00
67457;BME280;54319;52.038;4.640;2022-11-21T07:16:37;100423.59;;;1.64;100.00
67457;BME280;54319;52.038;4.640;2022-11-21T07:19:03;100427.91;;;1.63;100.00
67457;BME280;54319;52.038;4.640;2022-11-21T07:21:30;100425.41;;;1.68;100.00
67457;BME280;54319;52.038;4.640;2022-11-21T07:23:57;100425.44;;;1.71;100.00
67457;BME280;54319;52.038;4.640;2022-11-21T07:26:24;100428.06;;;1.73;100.00
67457;BME280;54319;52.038;4.640;2022-11-21T07:28:51;100430.72;;;1.77;100.00
67457;BME280;54319;52.038;4.640;2022-11-21T07:31:19;100432.56;;;1.83;100.00
67457;BME280;54319;52.038;4.640;2022-11-21T07:33:46;100435.19;;;1.84;100.00
67457;BME280;54319;52.038;4.640;2022-11-21T07:36:13;100421.44;;;1.89;100.00
67457;BME280;54319;52.038;4.640;2022-11-21T07:38:40;100425.84;;;1.93;100.00
67457;BME280;54319;52.038;4.640;2022-11-21T07:41:09;100429.38;;;1.98;100.00
67457;BME280;54319;52.038;4.640;2022-11-21T07:43:36;100419.94;;;2.00;100.00
67457;BME280;54319;52.038;4.640;2022-11-21T07:46:03;100422.63;;;2.06;100.00
67457;BME280;54319;52.038;4.640;2022-11-21T07:48:31;100424.31;;;2.04;100.00
67457;BME280;54319;52.038;4.640;2022-11-21T07:50:58;100414.78;;;2.01;100.00
67457;BME280;54319;52.038;4.640;2022-11-21T07:53:27;100408.78;;;2.04;100.00
67457;BME280;54319;52.038;4.640;2022-11-21T07:55:57;100406.13;;;1.99;100.00
67457;BME280;54319;52.038;4.640;2022-11-21T07:58:23;100408.75;;;2.01;100.00
67457;BME280;54319;52.038;4.640;2022-11-21T08:00:51;100399.25;;;1.98;100.00
67457;BME280;54319;52.038;4.640;2022-11-21T08:03:18;100402.72;;;2.00;100.00
67457;BME280;54319;52.038;4.640;2022-11-21T08:05:48;100403.59;;;2.01;100.00
67457;BME280;54319;52.038;4.640;2022-11-21T08:08:14;100398.50;;;2.05;100.00
67457;BME280;54319;52.038;4.640;2022-11-21T08:10:43;100392.50;;;2.08;100.00
67457;BME280;54319;52.038;4.640;2022-11-21T08:13:11;100386.53;;;2.12;100.00
67457;BME280;54319;52.038;4.640;2022-11-21T08:15:39;100376.25;;;2.15;100.00
67457;BME280;54319;52.038;4.640;2022-11-21T08:18:07;100375.47;;;2.21;100.00
67457;BME280;54319;52.038;4.640;2022-11-21T08:20:34;100372.13;;;2.26;100.00
67457;BME280;54319;52.038;4.640;2022-11-21T08:23:02;100380.78;;;2.30;100.00
67457;BME280;54319;52.038;4.640;2022-11-21T08:25:30;100372.25;;;2.36;100.00
67457;BME280;54319;52.038;4.640;2022-11-21T08:27:57;100374.88;;;2.39;100.00
67457;BME280;54319;52.038;4.640;2022-11-21T08:30:26;100362.06;;;2.46;100.00
67457;BME280;54319;52.038;4.640;2022-11-21T08:32:53;100367.28;;;2.50;100.00
67457;BME280;54319;52.038;4.640;2022-11-21T08:35:20;100362.19;;;2.56;100.00
67457;BME280;54319;52.038;4.640;2022-11-21T08:37:47;100357.97;;;2.62;100.00
67457;BME280;54319;52.038;4.640;2022-11-21T08:40:16;100358.03;;;2.67;100.00
67457;BME280;54319;52.038;4.640;2022-11-21T08:42:42;100361.56;;;2.74;100.00
67457;BME280;54319;52.038;4.640;2022-11-21T08:45:09;100359.94;;;2.80;100.00
67457;BME280;54319;52.038;4.640;2022-11-21T08:47:38;100344.44;;;2.85;100.00
67457;BME280;54319;52.038;4.640;2022-11-21T08:50:07;100342.81;;;2.90;100.00
67457;BME280;54319;52.038;4.640;2022-11-21T08:52:33;100345.44;;;2.96;100.00
67457;BME280;54319;52.038;4.640;2022-11-21T08:55:01;100347.25;;;3.02;100.00
67457;BME280;54319;52.038;4.640;2022-11-21T08:57:30;100339.53;;;3.06;100.00
67457;BME280;54319;52.038;4.640;2022-11-21T08:59:56;100334.44;;;3.13;100.00
67457;BME280;54319;52.038;4.640;2022-11-21T09:02:26;100340.53;;;3.18;100.00
67457;BME280;54319;52.038;4.640;2022-11-21T09:04:56;100338.03;;;3.25;100.00
67457;BME280;54319;52.038;4.640;2022-11-21T09:07:24;100330.31;;;3.33;100.00
67457;BME280;54319;52.038;4.640;2022-11-21T09:09:50;100327.84;;;3.44;100.00
67457;BME280;54319;52.038;4.640;2022-11-21T09:12:18;100328.84;;;3.58;100.00
67457;BME280;54319;52.038;4.640;2022-11-21T09:14:46;100324.63;;;3.71;100.00
67457;BME280;54319;52.038;4.640;2022-11-21T09:17:31;100310.97;;;3.87;100.00
67457;BME280;54319;52.038;4.640;2022-11-21T09:20:15;100312.78;;;4.04;100.00
67457;BME280;54319;52.038;4.640;2022-11-21T09:22:43;100297.31;;;4.16;100.00
67457;BME280;54319;52.038;4.640;2022-11-21T09:25:10;100300.84;;;4.27;100.00
67457;BME280;54319;52.038;4.640;2022-11-21T09:27:36;100307.00;;;4.42;100.00
67457;BME280;54319;52.038;4.640;2022-11-21T09:30:05;100306.19;;;4.53;100.00
67457;BME280;54319;52.038;4.640;2022-11-21T09:32:33;100301.03;;;4.61;100.00
67457;BME280;54319;52.038;4.640;2022-11-21T09:35:01;100299.38;;;4.72;100.00
67457;BME280;54319;52.038;4.640;2022-11-21T09:37:28;100296.78;;;4.85;100.00
67457;BME280;54319;52.038;4.640;2022-11-21T09:39:54;100289.03;;;4.91;100.00
67457;BME280;54319;52.038;4.640;2022-11-21T09:45:22;100287.38;;;5.10;100.00
67457;BME280;54319;52.038;4.640;2022-11-21T09:47:52;100282.19;;;5.24;100.00
67457;BME280;54319;52.038;4.640;2022-11-21T09:50:28;100282.22;;;5.39;100.00
67457;BME280;54319;52.038;4.640;2022-11-21T09:53:00;100281.38;;;5.55;100.00
67457;BME280;54319;52.038;4.640;2022-11-21T09:55:37;100287.44;;;5.62;100.00
67457;BME280;54319;52.038;4.640;2022-11-21T09:58:13;100277.91;;;5.67;100.00
67457;BME280;54319;52.038;4.640;2022-11-21T10:00:43;100277.00;;;5.73;100.00
67457;BME280;54319;52.038;4.640;2022-11-21T10:03:11;100270.94;;;5.82;100.00
67457;BME280;54319;52.038;4.640;2022-11-21T10:05:44;100273.56;;;5.91;100.00
67457;BME280;54319;52.038;4.640;2022-11-21T10:08:19;100265.75;;;5.88;100.00
67457;BME280;54319;52.038;4.640;2022-11-21T10:10:52;100262.28;;;5.90;100.00
67457;BME280;54319;52.038;4.640;2022-11-21T10:13:31;100263.16;;;5.98;100.00
67457;BME280;54319;52.038;4.640;2022-11-21T10:16:14;100263.16;;;5.98;100.00
67457;BME280;54319;52.038;4.640;2022-11-21T10:19:11;100260.53;;;6.14;100.00
67457;BME280;54319;52.038;4.640;2022-11-21T10:22:01;100249.25;;;6.24;100.00
67457;BME280;54319;52.038;4.640;2022-11-21T10:24:39;100252.69;;;6.35;100.00
67457;BME280;54319;52.038;4.640;2022-11-21T10:27:13;100250.03;;;6.51;100.00
67457;BME280;54319;52.038;4.640;2022-11-21T10:29:45;100249.19;;;6.43;100.00
67457;BME280;54319;52.038;4.640;2022-11-21T10:32:21;100244.81;;;6.57;100.00
67457;BME280;54319;52.038;4.640;2022-11-21T10:34:52;100238.69;;;6.64;100.00
67457;BME280;54319;52.038;4.640;2022-11-21T10:37:29;100230.00;;;6.62;100.00
67457;BME280;54319;52.038;4.640;2022-11-21T10:40:07;100224.81;;;6.62;100.00
67457;BME280;54319;52.038;4.640;2022-11-21T10:42:43;100226.53;;;6.65;100.00
67457;BME280;54319;52.038;4.640;2022-11-21T10:45:12;100218.69;;;6.72;100.00
67457;BME280;54319;52.038;4.640;2022-11-21T10:47:44;100224.72;;;6.77;100.00
67457;BME280;54319;52.038;4.640;2022-11-21T10:50:38;100223.91;;;6.71;100.00
67457;BME280;54319;52.038;4.640;2022-11-21T10:53:14;100214.38;;;6.65;100.00
67457;BME280;54319;52.038;4.640;2022-11-21T10:56:01;100213.50;;;6.68;100.00
67457;BME280;54319;52.038;4.640;2022-11-21T10:58:40;100214.38;;;6.68;100.00
67457;BME280;54319;52.038;4.640;2022-11-21T11:01:24;100212.63;;;6.69;100.00
67457;BME280;54319;52.038;4.640;2022-11-21T11:04:15;100207.44;;;6.63;100.00
67457;BME280;54319;52.038;4.640;2022-11-21T11:06:46;100197.84;;;6.69;100.00
67457;BME280;54319;52.038;4.640;2022-11-21T11:09:30;100201.25;;;6.82;100.00
67457;BME280;54319;52.038;4.640;2022-11-21T11:12:22;100202.88;;;7.03;100.00
67457;BME280;54319;52.038;4.640;2022-11-21T11:14:50;100188.91;;;7.13;100.00
67457;BME280;54319;52.038;4.640;2022-11-21T11:17:29;100185.34;;;7.25;100.00
67457;BME280;54319;52.038;4.640;2022-11-21T11:20:03;100182.81;;;7.16;100.00
67457;BME280;54319;52.038;4.640;2022-11-21T11:22:32;100176.63;;;7.28;100.00
67457;BME280;54319;52.038;4.640;2022-11-21T11:25:02;100167.09;;;7.25;100.00
67457;BME280;54319;52.038;4.640;2022-11-21T11:27:30;100162.66;;;7.36;100.00
67457;BME280;54319;52.038;4.640;2022-11-21T11:30:04;100169.53;;;7.45;100.00
67457;BME280;54319;52.038;4.640;2022-11-21T11:32:32;100160.78;;;7.54;100.00
67457;BME280;54319;52.038;4.640;2022-11-21T11:35:15;100152.09;;;7.52;100.00
67457;BME280;54319;52.038;4.640;2022-11-21T11:37:53;100148.59;;;7.54;100.00
67457;BME280;54319;52.038;4.640;2022-11-21T11:40:29;100142.50;;;7.55;100.00
67457;BME280;54319;52.038;4.640;2022-11-21T11:43:10;100134.69;;;7.54;100.00
67457;BME280;54319;52.038;4.640;2022-11-21T11:46:11;100129.44;;;7.60;100.00
67457;BME280;54319;52.038;4.640;2022-11-21T11:49:02;100115.53;;;7.56;100.00
67457;BME280;54319;52.038;4.640;2022-11-21T11:51:36;100114.59;;;7.67;100.00
67457;BME280;54319;52.038;4.640;2022-11-21T11:54:09;100114.75;;;7.48;99.82
67457;BME280;54319;52.038;4.640;2022-11-21T11:56:41;100098.25;;;7.46;100.00
67457;BME280;54319;52.038;4.640;2022-11-21T11:59:13;100090.50;;;7.41;99.88
67457;BME280;54319;52.038;4.640;2022-11-21T12:01:50;100088.03;;;7.29;100.00
67457;BME280;54319;52.038;4.640;2022-11-21T12:04:20;100080.28;;;7.20;100.00
67457;BME280;54319;52.038;4.640;2022-11-21T12:06:52;100082.91;;;7.15;100.00
67457;BME280;54319;52.038;4.640;2022-11-21T12:09:24;100073.41;;;7.11;100.00
67457;BME280;54319;52.038;4.640;2022-11-21T12:11:57;100063.88;;;7.10;100.00
67457;BME280;54319;52.038;4.640;2022-11-21T12:14:43;100056.00;;;7.13;100.00
67457;BME280;54319;52.038;4.640;2022-11-21T12:17:35;100046.53;;;7.06;100.00
67457;BME280;54319;52.038;4.640;2022-11-21T12:20:12;100038.75;;;7.03;100.00
67457;BME280;54319;52.038;4.640;2022-11-21T12:22:42;100043.22;;;6.92;100.00
67457;BME280;54319;52.038;4.640;2022-11-21T12:25:11;100034.56;;;6.90;100.00
67457;BME280;54319;52.038;4.640;2022-11-21T12:27:40;100029.34;;;6.90;100.00
67457;BME280;54319;52.038;4.640;2022-11-21T12:30:19;100018.94;;;6.87;100.00
67457;BME280;54319;52.038;4.640;2022-11-21T12:33:04;100011.16;;;6.82;100.00
67457;BME280;54319;52.038;4.640;2022-11-21T12:35:45;100009.41;;;6.86;100.00
67457;BME280;54319;52.038;4.640;2022-11-21T12:38:29;100000.66;;;6.91;100.00
67457;BME280;54319;52.038;4.640;2022-11-21T12:41:06;99994.59;;;6.89;100.00
67457;BME280;54319;52.038;4.640;2022-11-21T12:43:58;99985.06;;;6.87;100.00
67457;BME280;54319;52.038;4.640;2022-11-21T12:46:38;99972.03;;;6.88;100.00
67457;BME280;54319;52.038;4.640;2022-11-21T12:49:14;99971.19;;;6.88;100.00
67457;BME280;54319;52.038;4.640;2022-11-21T12:52:11;99957.31;;;6.86;100.00
67457;BME280;54319;52.038;4.640;2022-11-21T12:55:34;99953.72;;;6.96;100.00
67457;BME280;54319;52.038;4.640;2022-11-21T13:00:57;99932.81;;;7.05;100.00
67457;BME280;54319;52.038;4.640;2022-11-21T13:03:41;99924.97;;;7.07;100.00
67457;BME280;54319;52.038;4.640;2022-11-21T13:06:15;99924.09;;;7.08;100.00
67457;BME280;54319;52.038;4.640;2022-11-21T13:08:44;99917.19;;;7.05;100.00
67457;BME280;54319;52.038;4.640;2022-11-21T13:11:32;99916.28;;;7.05;100.00
67457;BME280;54319;52.038;4.640;2022-11-21T13:14:20;99900.72;;;7.01;99.74